FALE

Details ICAO FALE
Name DURBAN - KING SHAKA INTERNATIONAL
Region South Africa
Timezone Africa/Johannesburg (UTC+2.0)
Plans Departing 127
Arriving 159
Stats Elevation 304 ft / 93 m (AMSL)
Location -29.611771° 31.119312°
Runways 1
Magnetic Variation 25.350° W
Sunrise 2018-05-20 04:36:55 UTC / 2018-05-20 06:36:55 Local
Sunset 2018-05-20 15:10:01 UTC / 2018-05-20 17:10:01 Local
Advertisement - Login to hide

Runways

ID Width Length Bearing (true) Bearing (mag) Surface Threshold Offset Overrun Length
06 200 ft / 61 m 12,158 ft / 3,706 m 37.13° 62.48° Asphalt 0 ft / 0 m 0 ft / 0 m
24 200 ft / 61 m 12,158 ft / 3,706 m 217.12° 242.47° Asphalt 0 ft / 0 m 0 ft / 0 m

Map

Weather


0- 5 10 15 20 25 30 35+ Temperature / ° C

Clouds and Precipitation
Forecast for 2018-05-20 18:00 UTC. Updated 3 hours ago

Ground ~20,000 ft ~40,000 ft Winds

METAR

FALE 201900Z 36007KT CAVOK 19/14 Q1014 NOSIG

TAF

TAF FALE 201000Z 2012/2118 03015KT CAVOK BECMG 2102/2104 34005KT FM210600 22008KT 9999 SCT025 BECMG 2109/2111 CAVOK TX26/2012Z TN15/2104Z

Frequencies

Recorded 127.00 MHz ATIS
Tower 118.45 MHz SHAKA TWR
Ground 121.65 MHz SHAKA GND
Approach 125.75 MHz Durban Radar
Warning: Do not use this data for real-world aviation or navigation. No guarantee of current accuracy is given.